Time;durP1;ratioP1;P1;durP2;ratioP2;P2;SDS_P1;SDS_P2;PMS_P1;PMS_P2;Temp;Humidity;BMP_temperature;BMP_pressure;BME280_temperature;BME280_humidity;BME280_pressure;Samples;Min_cycle;Max_cycle;Signal;HPM_P1;HPM_P2
2022/03/19 00:01:24;;;;;;;1.67;0.50;;;;;;;;;;1789489;77;26349;-43
2022/03/19 00:03:51;;;;;;;0.40;0.40;;;;;;;;;;1788511;78;26361;-40
2022/03/19 00:06:18;;;;;;;0.30;0.30;;;;;;;;;;1789557;77;26841;-40
2022/03/19 00:08:46;;;;;;;0.40;0.40;;;;;;;;;;1793587;78;26922;-41
2022/03/19 00:11:13;;;;;;;0.40;0.40;;;;;;;;;;1813137;78;26286;-40
2022/03/19 00:13:40;;;;;;;1.87;0.40;;;;;;;;;;1796845;77;26259;-40
2022/03/19 00:16:08;;;;;;;0.90;0.40;;;;;;;;;;1801407;77;26707;-40
2022/03/19 00:18:37;;;;;;;0.40;0.40;;;;;;;;;;1815758;77;26299;-42
2022/03/19 00:21:04;;;;;;;0.35;0.33;;;;;;;;;;1801692;77;26311;-41
2022/03/19 00:23:31;;;;;;;0.40;0.40;;;;;;;;;;1796898;77;26305;-42
2022/03/19 00:25:58;;;;;;;0.60;0.33;;;;;;;;;;1811493;77;26896;-43
2022/03/19 00:28:26;;;;;;;1.55;0.40;;;;;;;;;;1817488;77;26266;-42
2022/03/19 00:30:53;;;;;;;0.45;0.45;;;;;;;;;;1812877;77;26270;-41
2022/03/19 00:33:21;;;;;;;0.47;0.47;;;;;;;;;;1788088;78;26277;-41
2022/03/19 00:35:48;;;;;;;0.40;0.40;;;;;;;;;;1805921;77;26845;-41
2022/03/19 00:38:17;;;;;;;0.80;0.50;;;;;;;;;;1797705;77;26294;-44
2022/03/19 00:40:45;;;;;;;0.40;0.40;;;;;;;;;;1805811;77;26215;-43
2022/03/19 00:43:13;;;;;;;0.33;0.33;;;;;;;;;;1814403;77;26286;-40
2022/03/19 00:45:40;;;;;;;0.42;0.42;;;;;;;;;;1802764;78;26320;-41
2022/03/19 00:48:07;;;;;;;0.40;0.40;;;;;;;;;;1809451;77;26360;-41
2022/03/19 00:50:35;;;;;;;0.30;0.30;;;;;;;;;;1796440;78;25680;-42
2022/03/19 00:53:02;;;;;;;0.30;0.30;;;;;;;;;;1806079;77;26262;-44
2022/03/19 00:55:29;;;;;;;0.30;0.30;;;;;;;;;;1796233;77;26372;-41
2022/03/19 00:57:57;;;;;;;0.40;0.40;;;;;;;;;;1816100;77;25669;-42
2022/03/19 01:00:26;;;;;;;0.75;0.30;;;;;;;;;;1800921;77;26799;-43
2022/03/19 01:02:55;;;;;;;0.85;0.50;;;;;;;;;;1799512;77;26270;-41
2022/03/19 01:05:23;;;;;;;0.35;0.35;;;;;;;;;;1811718;78;26337;-42
2022/03/19 01:07:52;;;;;;;0.40;0.40;;;;;;;;;;1809097;78;26266;-41
2022/03/19 01:10:21;;;;;;;0.50;0.42;;;;;;;;;;1798958;77;26329;-42
2022/03/19 01:12:49;;;;;;;0.30;0.30;;;;;;;;;;1816074;77;26275;-41
2022/03/19 01:15:16;;;;;;;0.72;0.28;;;;;;;;;;1818193;79;26267;-42
2022/03/19 01:17:44;;;;;;;0.30;0.30;;;;;;;;;;1794602;77;26269;-42
2022/03/19 01:20:12;;;;;;;0.30;0.30;;;;;;;;;;1817527;77;26282;-41
2022/03/19 01:22:41;;;;;;;0.30;0.30;;;;;;;;;;1818348;79;26275;-42
2022/03/19 01:25:09;;;;;;;0.23;0.23;;;;;;;;;;1800042;77;26876;-43
2022/03/19 01:27:37;;;;;;;0.30;0.30;;;;;;;;;;1808637;77;26576;-41
2022/03/19 01:30:06;;;;;;;0.28;0.28;;;;;;;;;;1795237;78;26332;-42
2022/03/19 01:32:35;;;;;;;0.37;0.37;;;;;;;;;;1821753;77;26757;-42
2022/03/19 01:35:02;;;;;;;0.40;0.40;;;;;;;;;;1808702;78;26823;-41
2022/03/19 01:37:30;;;;;;;0.40;0.40;;;;;;;;;;1814977;79;26267;-42
2022/03/19 01:39:58;;;;;;;0.30;0.30;;;;;;;;;;1810604;79;26278;-41
2022/03/19 01:42:26;;;;;;;0.30;0.30;;;;;;;;;;1805507;77;26270;-42
2022/03/19 01:44:53;;;;;;;0.30;0.30;;;;;;;;;;1805240;77;26289;-42
2022/03/19 01:47:23;;;;;;;0.35;0.35;;;;;;;;;;1807966;77;26631;-42
2022/03/19 01:49:51;;;;;;;0.30;0.30;;;;;;;;;;1794345;77;26298;-41
2022/03/19 01:52:19;;;;;;;0.30;0.30;;;;;;;;;;1793346;77;26261;-42
2022/03/19 01:54:47;;;;;;;0.55;0.33;;;;;;;;;;1790395;78;26309;-41
2022/03/19 01:57:16;;;;;;;0.35;0.35;;;;;;;;;;1796222;77;26238;-43
2022/03/19 01:59:44;;;;;;;0.40;0.40;;;;;;;;;;1813424;77;26290;-42
2022/03/19 02:02:11;;;;;;;0.30;0.30;;;;;;;;;;1833693;77;26332;-42
2022/03/19 02:04:39;;;;;;;0.30;0.30;;;;;;;;;;1809751;77;26266;-43
2022/03/19 02:07:11;;;;;;;0.30;0.30;;;;;;;;;;1814523;77;26340;-41
2022/03/19 02:09:37;;;;;;;0.40;0.40;;;;;;;;;;1812602;77;26717;-42
2022/03/19 02:12:06;;;;;;;0.20;0.20;;;;;;;;;;1795296;77;26278;-42
2022/03/19 02:14:37;;;;;;;0.30;0.30;;;;;;;;;;1818054;77;26311;-42
2022/03/19 02:17:05;;;;;;;0.30;0.30;;;;;;;;;;1826263;77;26251;-43
2022/03/19 02:19:34;;;;;;;0.50;0.50;;;;;;;;;;1822781;77;26888;-43
2022/03/19 02:22:01;;;;;;;0.30;0.30;;;;;;;;;;1811095;77;26301;-43
2022/03/19 02:27:15;;;;;;;0.50;0.50;;;;;;;;;;1794585;78;26790;-45
2022/03/19 02:29:42;;;;;;;0.37;0.37;;;;;;;;;;1790399;79;26375;-42
2022/03/19 02:32:10;;;;;;;0.20;0.20;;;;;;;;;;1822133;77;26341;-42
2022/03/19 02:34:37;;;;;;;0.30;0.30;;;;;;;;;;1803591;77;26278;-42
2022/03/19 02:37:04;;;;;;;0.47;0.47;;;;;;;;;;1790229;78;26380;-44
2022/03/19 02:39:32;;;;;;;0.40;0.40;;;;;;;;;;1799866;77;26772;-43
2022/03/19 02:42:01;;;;;;;0.47;0.47;;;;;;;;;;1799966;78;26352;-43
2022/03/19 02:44:29;;;;;;;0.30;0.30;;;;;;;;;;1790867;79;26667;-43
2022/03/19 02:46:57;;;;;;;0.40;0.40;;;;;;;;;;1819416;77;26330;-43
2022/03/19 02:49:25;;;;;;;0.30;0.30;;;;;;;;;;1817081;77;26348;-44
2022/03/19 02:51:53;;;;;;;0.40;0.40;;;;;;;;;;1819346;77;26349;-42
2022/03/19 02:54:21;;;;;;;0.60;0.40;;;;;;;;;;1809172;78;26305;-42
2022/03/19 02:56:49;;;;;;;0.33;0.33;;;;;;;;;;1810851;77;26317;-42
2022/03/19 02:59:18;;;;;;;0.50;0.50;;;;;;;;;;1793415;79;26280;-42
2022/03/19 03:01:45;;;;;;;0.30;0.30;;;;;;;;;;1819702;77;26764;-42
2022/03/19 03:04:13;;;;;;;0.60;0.50;;;;;;;;;;1811284;77;26379;-43
2022/03/19 03:06:42;;;;;;;0.30;0.30;;;;;;;;;;1820468;77;26294;-42
2022/03/19 03:09:10;;;;;;;1.65;0.28;;;;;;;;;;1792263;78;26266;-49
2022/03/19 03:11:38;;;;;;;0.33;0.33;;;;;;;;;;1809441;78;26207;-42
2022/03/19 03:14:06;;;;;;;0.33;0.33;;;;;;;;;;1801700;77;26719;-41
2022/03/19 03:16:34;;;;;;;0.40;0.40;;;;;;;;;;1819237;77;26247;-42
2022/03/19 03:19:02;;;;;;;0.30;0.30;;;;;;;;;;1797305;79;26348;-47
2022/03/19 03:21:30;;;;;;;1.27;0.40;;;;;;;;;;1810208;77;26259;-44
2022/03/19 03:23:57;;;;;;;0.35;0.35;;;;;;;;;;1815980;79;26328;-41
2022/03/19 03:26:25;;;;;;;0.20;0.20;;;;;;;;;;1819015;77;26296;-42
2022/03/19 03:28:53;;;;;;;0.40;0.40;;;;;;;;;;1808146;77;26332;-44
2022/03/19 03:31:20;;;;;;;0.40;0.40;;;;;;;;;;1807727;77;26317;-42
2022/03/19 03:33:48;;;;;;;0.33;0.33;;;;;;;;;;1797535;78;26293;-41
2022/03/19 03:36:16;;;;;;;0.30;0.30;;;;;;;;;;1807582;77;26282;-43
2022/03/19 03:38:43;;;;;;;0.40;0.40;;;;;;;;;;1806554;77;26410;-49
2022/03/19 03:41:10;;;;;;;0.53;0.53;;;;;;;;;;1798028;78;26263;-43
2022/03/19 03:43:37;;;;;;;0.30;0.30;;;;;;;;;;1797277;77;26356;-42
2022/03/19 03:46:05;;;;;;;0.28;0.28;;;;;;;;;;1801984;78;26259;-42
2022/03/19 03:48:35;;;;;;;0.47;0.40;;;;;;;;;;1808481;77;26353;-42
2022/03/19 03:51:01;;;;;;;0.30;0.30;;;;;;;;;;1799845;79;26309;-43
2022/03/19 03:53:29;;;;;;;0.40;0.40;;;;;;;;;;1801711;77;26275;-47
2022/03/19 03:56:01;;;;;;;0.40;0.40;;;;;;;;;;1805455;78;26326;-43
2022/03/19 03:58:26;;;;;;;0.40;0.40;;;;;;;;;;1790018;78;26287;-42
2022/03/19 04:00:53;;;;;;;0.37;0.37;;;;;;;;;;1793579;78;26361;-43
2022/03/19 04:03:21;;;;;;;0.47;0.47;;;;;;;;;;1786398;78;26317;-43
2022/03/19 04:05:49;;;;;;;0.50;0.50;;;;;;;;;;1807333;78;26788;-43
2022/03/19 04:08:16;;;;;;;0.40;0.40;;;;;;;;;;1777433;79;26867;-42
2022/03/19 04:10:44;;;;;;;0.42;0.42;;;;;;;;;;1778981;79;26309;-42
2022/03/19 04:13:11;;;;;;;0.40;0.40;;;;;;;;;;1821394;78;26330;-42
2022/03/19 04:15:39;;;;;;;0.30;0.30;;;;;;;;;;1790387;78;26381;-42
2022/03/19 04:18:06;;;;;;;0.50;0.50;;;;;;;;;;1794172;79;26265;-42
2022/03/19 04:20:34;;;;;;;0.40;0.40;;;;;;;;;;1780694;78;26699;-43
2022/03/19 04:23:01;;;;;;;1.15;0.42;;;;;;;;;;1777107;79;26374;-43
2022/03/19 04:25:29;;;;;;;0.25;0.25;;;;;;;;;;1803637;78;26315;-42
2022/03/19 04:27:57;;;;;;;0.50;0.50;;;;;;;;;;1791230;78;26326;-42
2022/03/19 04:30:26;;;;;;;0.30;0.30;;;;;;;;;;1802898;78;26339;-44
2022/03/19 04:32:58;;;;;;;0.33;0.33;;;;;;;;;;1778451;79;26324;-42
2022/03/19 04:38:13;;;;;;;0.40;0.40;;;;;;;;;;1793304;79;26290;-41
2022/03/19 04:40:41;;;;;;;0.50;0.50;;;;;;;;;;1779492;79;26295;-41
2022/03/19 04:43:09;;;;;;;0.30;0.30;;;;;;;;;;1775134;79;26306;-43
2022/03/19 04:45:36;;;;;;;0.40;0.40;;;;;;;;;;1790951;79;26255;-44
2022/03/19 04:48:04;;;;;;;0.40;0.40;;;;;;;;;;1791068;78;26271;-42
2022/03/19 04:50:31;;;;;;;0.30;0.30;;;;;;;;;;1785385;79;26793;-44
2022/03/19 04:52:59;;;;;;;0.40;0.40;;;;;;;;;;1795201;79;26693;-41
2022/03/19 04:55:26;;;;;;;0.30;0.30;;;;;;;;;;1795338;78;26267;-42
2022/03/19 04:57:54;;;;;;;1.17;0.30;;;;;;;;;;1790022;79;26381;-42
2022/03/19 05:00:21;;;;;;;0.50;0.50;;;;;;;;;;1822678;77;26321;-41
2022/03/19 05:02:49;;;;;;;0.40;0.40;;;;;;;;;;1793793;78;26389;-42
2022/03/19 05:05:16;;;;;;;0.20;0.20;;;;;;;;;;1798976;78;26290;-43
2022/03/19 05:07:44;;;;;;;0.50;0.50;;;;;;;;;;1790826;77;26340;-43
2022/03/19 05:12:56;;;;;;;0.40;0.40;;;;;;;;;;1824358;77;26354;-41
2022/03/19 05:15:24;;;;;;;0.30;0.30;;;;;;;;;;1810541;79;26267;-42
2022/03/19 05:17:51;;;;;;;0.40;0.40;;;;;;;;;;1793949;79;26282;-42
2022/03/19 05:20:18;;;;;;;0.40;0.40;;;;;;;;;;1801482;78;26337;-42
2022/03/19 05:22:46;;;;;;;0.40;0.40;;;;;;;;;;1799338;78;26255;-45
2022/03/19 05:25:13;;;;;;;0.50;0.50;;;;;;;;;;1804886;77;26702;-43
2022/03/19 05:27:41;;;;;;;0.33;0.33;;;;;;;;;;1805177;77;26274;-44
2022/03/19 05:30:08;;;;;;;0.72;0.50;;;;;;;;;;1820652;77;26288;-42
2022/03/19 05:32:37;;;;;;;0.30;0.30;;;;;;;;;;1812297;78;26703;-41
2022/03/19 05:35:05;;;;;;;1.75;0.33;;;;;;;;;;1820093;77;26294;-42
2022/03/19 05:37:32;;;;;;;0.40;0.40;;;;;;;;;;1811585;77;26270;-42
2022/03/19 05:40:00;;;;;;;0.40;0.40;;;;;;;;;;1806394;77;26291;-42
2022/03/19 05:42:28;;;;;;;0.37;0.37;;;;;;;;;;1811061;78;26294;-41
2022/03/19 05:44:56;;;;;;;0.40;0.40;;;;;;;;;;1789828;79;26219;-42
2022/03/19 05:47:23;;;;;;;0.40;0.40;;;;;;;;;;1805126;77;26730;-43
2022/03/19 05:49:51;;;;;;;0.30;0.30;;;;;;;;;;1800644;79;26262;-42
2022/03/19 05:52:18;;;;;;;0.30;0.30;;;;;;;;;;1803830;77;26270;-42
2022/03/19 05:54:45;;;;;;;0.30;0.30;;;;;;;;;;1797350;77;26238;-42
2022/03/19 05:57:13;;;;;;;0.40;0.40;;;;;;;;;;1792278;78;26301;-43
2022/03/19 05:59:40;;;;;;;0.37;0.37;;;;;;;;;;1823455;77;26277;-41
2022/03/19 06:02:07;;;;;;;0.40;0.40;;;;;;;;;;1805313;77;25305;-41
2022/03/19 06:04:35;;;;;;;0.30;0.30;;;;;;;;;;1807601;78;25868;-43
2022/03/19 06:07:03;;;;;;;0.40;0.40;;;;;;;;;;1808241;77;26305;-40
2022/03/19 06:09:31;;;;;;;0.30;0.30;;;;;;;;;;1806544;79;26263;-40
2022/03/19 06:11:58;;;;;;;0.37;0.37;;;;;;;;;;1805526;77;26359;-41
2022/03/19 06:14:25;;;;;;;0.50;0.50;;;;;;;;;;1806462;77;26316;-40
2022/03/19 06:16:52;;;;;;;0.40;0.40;;;;;;;;;;1805219;78;26343;-41
2022/03/19 06:19:20;;;;;;;0.55;0.55;;;;;;;;;;1790264;78;26281;-41
2022/03/19 06:21:48;;;;;;;0.40;0.40;;;;;;;;;;1793534;78;26859;-41
2022/03/19 06:24:15;;;;;;;0.40;0.40;;;;;;;;;;1822402;77;26251;-44
2022/03/19 06:26:42;;;;;;;0.30;0.30;;;;;;;;;;1808785;77;26347;-42
2022/03/19 06:29:09;;;;;;;0.30;0.30;;;;;;;;;;1804334;78;26289;-41
2022/03/19 06:31:37;;;;;;;0.50;0.50;;;;;;;;;;1805819;78;26749;-41
2022/03/19 06:34:04;;;;;;;0.37;0.37;;;;;;;;;;1797148;78;26747;-42
2022/03/19 06:39:17;;;;;;;0.50;0.50;;;;;;;;;;1800359;77;26338;-41
2022/03/19 06:41:45;;;;;;;0.42;0.42;;;;;;;;;;1806056;78;26348;-41
2022/03/19 06:44:12;;;;;;;0.40;0.40;;;;;;;;;;1793904;79;26285;-41
2022/03/19 06:46:40;;;;;;;0.40;0.40;;;;;;;;;;1802928;78;26219;-42
2022/03/19 06:49:07;;;;;;;0.40;0.40;;;;;;;;;;1813969;77;26281;-43
2022/03/19 06:51:36;;;;;;;0.30;0.30;;;;;;;;;;1797750;77;26336;-42
2022/03/19 06:54:04;;;;;;;0.40;0.40;;;;;;;;;;1798766;77;26294;-41
2022/03/19 06:56:32;;;;;;;0.40;0.40;;;;;;;;;;1798091;77;26301;-42
2022/03/19 06:58:59;;;;;;;0.55;0.47;;;;;;;;;;1786752;78;26294;-42
2022/03/19 07:01:27;;;;;;;0.57;0.57;;;;;;;;;;1779724;78;26250;-43
2022/03/19 07:03:54;;;;;;;0.50;0.50;;;;;;;;;;1785041;78;26321;-42
2022/03/19 07:06:21;;;;;;;0.30;0.30;;;;;;;;;;1788035;78;26204;-41
2022/03/19 07:08:50;;;;;;;2.15;0.40;;;;;;;;;;1785396;78;26395;-41
2022/03/19 07:11:17;;;;;;;0.40;0.40;;;;;;;;;;1783423;78;26282;-42
2022/03/19 07:13:45;;;;;;;0.50;0.50;;;;;;;;;;1781738;78;26221;-41
2022/03/19 07:16:15;;;;;;;0.45;0.45;;;;;;;;;;1791087;78;26744;-41
2022/03/19 07:18:41;;;;;;;0.88;0.50;;;;;;;;;;1786478;78;25729;-41
2022/03/19 07:21:10;;;;;;;0.47;0.47;;;;;;;;;;1787288;78;26360;-43
2022/03/19 07:23:37;;;;;;;0.50;0.50;;;;;;;;;;1787584;78;26278;-42
2022/03/19 07:26:05;;;;;;;0.50;0.50;;;;;;;;;;1786420;78;26346;-42
2022/03/19 07:28:32;;;;;;;0.50;0.50;;;;;;;;;;1783064;78;26302;-41
2022/03/19 07:31:00;;;;;;;0.50;0.50;;;;;;;;;;1786392;78;25922;-43
2022/03/19 07:33:29;;;;;;;0.45;0.45;;;;;;;;;;1777316;78;26360;-43
2022/03/19 07:35:56;;;;;;;0.30;0.30;;;;;;;;;;1785640;78;26294;-43
2022/03/19 07:38:23;;;;;;;0.60;0.60;;;;;;;;;;1784824;78;26826;-42
2022/03/19 07:43:36;;;;;;;0.40;0.40;;;;;;;;;;1781793;78;26345;-41
2022/03/19 07:46:03;;;;;;;0.33;0.33;;;;;;;;;;1782670;78;26219;-41
2022/03/19 07:48:31;;;;;;;0.40;0.40;;;;;;;;;;1790739;78;26333;-41
2022/03/19 07:50:58;;;;;;;3.50;0.85;;;;;;;;;;1785665;78;26226;-42
2022/03/19 07:53:25;;;;;;;0.42;0.42;;;;;;;;;;1786826;78;26404;-40
2022/03/19 07:55:54;;;;;;;0.40;0.40;;;;;;;;;;1780069;78;26373;-41
2022/03/19 07:58:21;;;;;;;0.40;0.40;;;;;;;;;;1777647;78;26315;-43
2022/03/19 08:00:49;;;;;;;0.53;0.53;;;;;;;;;;1798176;78;26274;-45
2022/03/19 08:03:17;;;;;;;0.50;0.50;;;;;;;;;;1799089;78;26327;-41
2022/03/19 08:05:44;;;;;;;0.35;0.35;;;;;;;;;;1787946;78;26287;-43
2022/03/19 08:08:12;;;;;;;0.40;0.40;;;;;;;;;;1783181;78;26251;-43
2022/03/19 08:10:40;;;;;;;0.55;0.50;;;;;;;;;;1788004;78;26695;-43
2022/03/19 08:13:08;;;;;;;0.53;0.53;;;;;;;;;;1788816;78;26274;-44
2022/03/19 08:15:37;;;;;;;0.30;0.30;;;;;;;;;;1787258;78;27376;-44
2022/03/19 08:18:05;;;;;;;0.65;0.62;;;;;;;;;;1788019;78;26629;-42
2022/03/19 08:20:32;;;;;;;0.40;0.40;;;;;;;;;;1797155;78;26710;-43
2022/03/19 08:23:00;;;;;;;1.02;0.50;;;;;;;;;;1787853;78;26263;-43
2022/03/19 08:25:27;;;;;;;0.72;0.40;;;;;;;;;;1779532;78;26266;-43
2022/03/19 08:27:57;;;;;;;0.60;0.60;;;;;;;;;;1807070;78;27396;-43
2022/03/19 08:30:24;;;;;;;1.47;0.60;;;;;;;;;;1785272;78;26718;-42
2022/03/19 08:32:51;;;;;;;0.55;0.55;;;;;;;;;;1787218;78;26299;-44
2022/03/19 08:35:18;;;;;;;0.53;0.53;;;;;;;;;;1801596;78;26270;-43
2022/03/19 08:37:46;;;;;;;1.75;0.60;;;;;;;;;;1791465;78;26298;-46
2022/03/19 08:40:16;;;;;;;0.60;0.60;;;;;;;;;;1801964;78;26278;-48
2022/03/19 08:42:45;;;;;;;0.40;0.40;;;;;;;;;;1808914;79;26232;-46
2022/03/19 08:45:12;;;;;;;1.77;0.68;;;;;;;;;;1797560;79;26387;-48
2022/03/19 08:47:40;;;;;;;0.45;0.45;;;;;;;;;;1794971;78;26263;-48
2022/03/19 08:50:08;;;;;;;3.08;0.60;;;;;;;;;;1805721;77;26375;-50
2022/03/19 08:52:36;;;;;;;1.00;0.70;;;;;;;;;;1792793;79;26761;-49
2022/03/19 08:55:04;;;;;;;1.65;0.47;;;;;;;;;;1783601;78;26305;-49
2022/03/19 08:57:32;;;;;;;0.57;0.57;;;;;;;;;;1794356;79;28201;-43
2022/03/19 08:59:59;;;;;;;0.70;0.70;;;;;;;;;;1784088;78;28740;-45
2022/03/19 09:02:27;;;;;;;0.90;0.50;;;;;;;;;;1787557;79;26335;-45
2022/03/19 09:04:54;;;;;;;1.20;0.55;;;;;;;;;;1802313;78;26279;-45
2022/03/19 09:07:21;;;;;;;0.55;0.55;;;;;;;;;;1803508;78;26334;-45
2022/03/19 09:09:52;;;;;;;1.45;0.60;;;;;;;;;;1787953;79;25334;-47
2022/03/19 09:12:17;;;;;;;0.60;0.60;;;;;;;;;;1805306;78;26300;-46
2022/03/19 09:14:44;;;;;;;0.40;0.40;;;;;;;;;;1794174;78;26297;-45
2022/03/19 09:17:12;;;;;;;0.50;0.50;;;;;;;;;;1794775;78;26340;-46
2022/03/19 09:19:39;;;;;;;0.47;0.47;;;;;;;;;;1776367;79;26290;-47
2022/03/19 09:22:06;;;;;;;0.50;0.50;;;;;;;;;;1776323;79;26305;-47
2022/03/19 09:24:34;;;;;;;0.50;0.50;;;;;;;;;;1783312;79;26267;-48
2022/03/19 09:27:01;;;;;;;0.47;0.47;;;;;;;;;;1781096;79;26274;-46
2022/03/19 09:29:28;;;;;;;0.53;0.50;;;;;;;;;;1791098;79;26967;-46
2022/03/19 09:31:56;;;;;;;0.62;0.42;;;;;;;;;;1804752;79;26314;-41
2022/03/19 09:34:23;;;;;;;1.07;0.57;;;;;;;;;;1777513;78;28252;-46
2022/03/19 09:36:51;;;;;;;0.60;0.60;;;;;;;;;;1800162;78;26290;-45
2022/03/19 09:39:19;;;;;;;0.37;0.37;;;;;;;;;;1782010;78;26757;-49
2022/03/19 09:41:47;;;;;;;0.40;0.40;;;;;;;;;;1799161;78;26264;-47
2022/03/19 09:44:17;;;;;;;0.60;0.60;;;;;;;;;;1781036;79;26877;-46
2022/03/19 09:46:46;;;;;;;0.40;0.40;;;;;;;;;;1789334;78;26334;-46
2022/03/19 09:49:14;;;;;;;0.45;0.42;;;;;;;;;;1786652;78;26354;-49
2022/03/19 09:51:44;;;;;;;0.45;0.45;;;;;;;;;;1802098;78;26898;-46
2022/03/19 09:54:12;;;;;;;0.50;0.50;;;;;;;;;;1788258;79;26785;-46
2022/03/19 09:56:39;;;;;;;0.47;0.47;;;;;;;;;;1803104;79;26303;-46
2022/03/19 09:59:06;;;;;;;0.50;0.50;;;;;;;;;;1792720;77;26314;-47
2022/03/19 10:01:35;;;;;;;0.40;0.40;;;;;;;;;;1816020;78;26275;-45
2022/03/19 10:04:04;;;;;;;0.47;0.47;;;;;;;;;;1806253;77;26809;-44
2022/03/19 10:09:04;;;;;;;0.47;0.47;;;;;;;;;;1771420;79;26321;-45
2022/03/19 10:11:32;;;;;;;1.37;0.42;;;;;;;;;;1800328;77;26374;-47
2022/03/19 10:14:00;;;;;;;1.55;0.42;;;;;;;;;;1807037;77;26278;-44
2022/03/19 10:16:31;;;;;;;0.45;0.45;;;;;;;;;;1804896;77;26681;-46
2022/03/19 10:19:03;;;;;;;0.57;0.50;;;;;;;;;;1794848;77;26274;-46
2022/03/19 10:21:30;;;;;;;0.40;0.40;;;;;;;;;;1792306;78;26323;-45
2022/03/19 10:24:02;;;;;;;0.40;0.40;;;;;;;;;;1828190;77;26255;-45
2022/03/19 10:26:28;;;;;;;0.40;0.40;;;;;;;;;;1799234;79;26267;-46
2022/03/19 10:29:00;;;;;;;0.42;0.42;;;;;;;;;;1817075;78;26278;-46
2022/03/19 10:31:35;;;;;;;0.40;0.40;;;;;;;;;;1790643;79;26317;-47
2022/03/19 10:34:03;;;;;;;0.30;0.30;;;;;;;;;;1789160;77;28286;-46
2022/03/19 10:36:32;;;;;;;0.30;0.30;;;;;;;;;;1816526;77;26289;-44
2022/03/19 10:38:59;;;;;;;0.65;0.57;;;;;;;;;;1809322;79;26285;-45
2022/03/19 10:41:27;;;;;;;0.42;0.42;;;;;;;;;;1795964;79;26286;-47
2022/03/19 10:43:54;;;;;;;0.40;0.40;;;;;;;;;;1801691;77;26303;-44
2022/03/19 10:46:21;;;;;;;1.20;0.40;;;;;;;;;;1795754;77;26837;-44
2022/03/19 10:48:50;;;;;;;0.30;0.30;;;;;;;;;;1794704;77;26360;-46
2022/03/19 10:51:20;;;;;;;0.85;0.30;;;;;;;;;;1803501;77;26347;-45
2022/03/19 10:53:50;;;;;;;0.20;0.20;;;;;;;;;;1802991;77;26286;-44
2022/03/19 10:56:17;;;;;;;0.30;0.30;;;;;;;;;;1801769;77;26388;-46
2022/03/19 10:58:44;;;;;;;0.40;0.40;;;;;;;;;;1813472;77;26262;-46
2022/03/19 11:01:13;;;;;;;0.30;0.30;;;;;;;;;;1804886;77;26733;-46
2022/03/19 11:03:42;;;;;;;0.30;0.30;;;;;;;;;;1840216;77;25660;-46
2022/03/19 11:06:11;;;;;;;0.20;0.20;;;;;;;;;;1809751;77;26733;-44
2022/03/19 11:08:43;;;;;;;0.30;0.30;;;;;;;;;;1793619;78;26310;-44
2022/03/19 11:11:12;;;;;;;0.30;0.30;;;;;;;;;;1791695;77;26262;-44
2022/03/19 11:13:44;;;;;;;0.30;0.30;;;;;;;;;;1795959;77;26279;-45
2022/03/19 11:16:12;;;;;;;0.40;0.40;;;;;;;;;;1806260;77;26306;-44
2022/03/19 11:18:43;;;;;;;0.45;0.45;;;;;;;;;;1797980;77;26348;-45
2022/03/19 11:21:14;;;;;;;0.40;0.40;;;;;;;;;;1798210;78;26282;-48
2022/03/19 11:23:42;;;;;;;0.20;0.20;;;;;;;;;;1810975;77;26345;-49
2022/03/19 11:26:11;;;;;;;0.30;0.30;;;;;;;;;;1796062;78;26714;-45
2022/03/19 11:28:38;;;;;;;0.55;0.30;;;;;;;;;;1793527;78;26722;-47
2022/03/19 11:31:09;;;;;;;0.40;0.40;;;;;;;;;;1790070;78;26258;-48
2022/03/19 11:33:38;;;;;;;0.30;0.30;;;;;;;;;;1797830;78;26324;-45
2022/03/19 11:36:07;;;;;;;0.35;0.35;;;;;;;;;;1827890;77;26283;-46
2022/03/19 11:38:54;;;;;;;0.20;0.20;;;;;;;;;;1791719;78;26313;-42
2022/03/19 11:41:23;;;;;;;0.28;0.28;;;;;;;;;;1791219;78;26290;-44
2022/03/19 11:43:51;;;;;;;0.20;0.20;;;;;;;;;;1802427;78;26282;-45
2022/03/19 11:46:18;;;;;;;0.40;0.30;;;;;;;;;;1823674;77;26381;-47
2022/03/19 11:48:47;;;;;;;0.70;0.60;;;;;;;;;;1808250;78;26813;-46
2022/03/19 11:51:32;;;;;;;0.30;0.30;;;;;;;;;;1806164;78;26298;-47
2022/03/19 11:54:00;;;;;;;0.30;0.30;;;;;;;;;;1794908;77;26229;-46
2022/03/19 11:56:41;;;;;;;0.28;0.28;;;;;;;;;;1807315;78;26265;-48
2022/03/19 11:59:19;;;;;;;0.33;0.30;;;;;;;;;;1828512;77;26247;-47
2022/03/19 12:01:58;;;;;;;0.20;0.20;;;;;;;;;;1791150;78;26302;-45
2022/03/19 12:04:26;;;;;;;0.60;0.30;;;;;;;;;;1788525;78;26320;-46
2022/03/19 12:06:54;;;;;;;0.40;0.35;;;;;;;;;;1794467;78;26774;-45
2022/03/19 12:09:35;;;;;;;0.25;0.25;;;;;;;;;;1785363;78;26754;-46
2022/03/19 12:12:13;;;;;;;0.23;0.23;;;;;;;;;;1805316;78;26333;-45
2022/03/19 12:14:40;;;;;;;0.28;0.28;;;;;;;;;;1815218;78;26330;-44
2022/03/19 12:17:15;;;;;;;0.20;0.20;;;;;;;;;;1793538;78;26259;-46
2022/03/19 12:19:51;;;;;;;0.40;0.40;;;;;;;;;;1793029;78;26779;-45
2022/03/19 12:22:26;;;;;;;0.33;0.33;;;;;;;;;;1802838;78;26272;-43
2022/03/19 12:24:55;;;;;;;0.20;0.20;;;;;;;;;;1788076;79;26693;-45
2022/03/19 12:27:23;;;;;;;0.30;0.30;;;;;;;;;;1783834;79;26297;-44
2022/03/19 12:29:51;;;;;;;1.52;0.30;;;;;;;;;;1776469;79;26290;-43
2022/03/19 12:32:22;;;;;;;0.20;0.20;;;;;;;;;;1793658;79;25536;-47
2022/03/19 12:34:47;;;;;;;0.23;0.23;;;;;;;;;;1797648;78;26319;-46
2022/03/19 12:37:15;;;;;;;0.37;0.37;;;;;;;;;;1783886;79;26360;-46
2022/03/19 12:39:42;;;;;;;0.30;0.30;;;;;;;;;;1781415;79;26273;-47
2022/03/19 12:42:09;;;;;;;0.55;0.20;;;;;;;;;;1783030;79;26282;-48
2022/03/19 12:44:38;;;;;;;0.20;0.20;;;;;;;;;;1787704;79;26284;-47
2022/03/19 12:47:06;;;;;;;0.30;0.30;;;;;;;;;;1784200;78;26789;-50
2022/03/19 12:49:34;;;;;;;0.10;0.10;;;;;;;;;;1790039;78;26286;-45
2022/03/19 12:52:09;;;;;;;0.30;0.30;;;;;;;;;;1783024;78;27485;-42
2022/03/19 12:54:36;;;;;;;0.57;0.55;;;;;;;;;;1781584;78;26270;-44
2022/03/19 12:57:11;;;;;;;0.20;0.20;;;;;;;;;;1784956;78;26570;-43
2022/03/19 12:59:40;;;;;;;0.20;0.20;;;;;;;;;;1780006;78;26285;-44
2022/03/19 13:02:07;;;;;;;0.37;0.37;;;;;;;;;;1798871;78;26356;-46
2022/03/19 13:04:35;;;;;;;0.30;0.30;;;;;;;;;;1787868;78;26738;-44
2022/03/19 13:07:03;;;;;;;0.23;0.23;;;;;;;;;;1786445;78;26255;-45
2022/03/19 13:09:32;;;;;;;0.30;0.30;;;;;;;;;;1789929;78;26282;-43
2022/03/19 13:12:01;;;;;;;0.42;0.30;;;;;;;;;;1785578;78;26243;-43
2022/03/19 13:14:28;;;;;;;0.20;0.20;;;;;;;;;;1782856;78;26389;-47
2022/03/19 13:16:55;;;;;;;0.25;0.25;;;;;;;;;;1790725;78;26310;-44
2022/03/19 13:19:24;;;;;;;0.37;0.37;;;;;;;;;;1784853;78;26278;-43
2022/03/19 13:21:53;;;;;;;0.25;0.25;;;;;;;;;;1791603;78;26715;-45
2022/03/19 13:24:22;;;;;;;0.20;0.20;;;;;;;;;;1802910;78;26763;-43
2022/03/19 13:26:49;;;;;;;0.30;0.30;;;;;;;;;;1792425;79;26313;-43
2022/03/19 13:29:21;;;;;;;0.30;0.30;;;;;;;;;;1788670;79;26340;-44
2022/03/19 13:31:51;;;;;;;0.25;0.25;;;;;;;;;;1790754;79;26359;-44
2022/03/19 13:34:19;;;;;;;0.40;0.40;;;;;;;;;;1787754;78;26943;-46
2022/03/19 13:36:50;;;;;;;0.78;0.40;;;;;;;;;;1790560;78;26324;-45
2022/03/19 13:39:22;;;;;;;0.30;0.30;;;;;;;;;;1795165;78;26287;-45
2022/03/19 13:41:50;;;;;;;1.82;0.40;;;;;;;;;;1781709;79;26309;-45
2022/03/19 13:44:31;;;;;;;1.98;0.42;;;;;;;;;;1787229;79;26324;-46
2022/03/19 13:47:02;;;;;;;1.45;0.50;;;;;;;;;;1787998;78;26956;-48
2022/03/19 13:49:29;;;;;;;0.33;0.33;;;;;;;;;;1793075;78;26344;-50
2022/03/19 13:51:57;;;;;;;0.50;0.30;;;;;;;;;;1780423;79;26340;-46
2022/03/19 13:54:26;;;;;;;0.23;0.23;;;;;;;;;;1790919;79;26291;-46
2022/03/19 13:56:55;;;;;;;0.28;0.28;;;;;;;;;;1788844;79;26267;-47
2022/03/19 13:59:30;;;;;;;0.30;0.30;;;;;;;;;;1785628;78;26287;-50
2022/03/19 14:01:52;;;;;;;0.37;0.37;;;;;;;;;;1782806;78;26848;-47
2022/03/19 14:04:20;;;;;;;0.37;0.37;;;;;;;;;;1792947;78;27367;-48
2022/03/19 14:06:48;;;;;;;0.30;0.30;;;;;;;;;;1805717;78;26349;-48
2022/03/19 14:09:16;;;;;;;0.70;0.50;;;;;;;;;;1794059;79;26593;-48
2022/03/19 14:11:47;;;;;;;0.80;0.40;;;;;;;;;;1785267;78;26267;-47
2022/03/19 14:14:17;;;;;;;0.33;0.33;;;;;;;;;;1787571;79;26765;-47
2022/03/19 14:16:55;;;;;;;0.60;0.60;;;;;;;;;;1783240;78;26289;-47
2022/03/19 14:19:22;;;;;;;0.40;0.40;;;;;;;;;;1781145;79;26828;-47
2022/03/19 14:21:50;;;;;;;0.57;0.45;;;;;;;;;;1783475;79;26773;-45
2022/03/19 14:24:17;;;;;;;0.40;0.40;;;;;;;;;;1789727;78;26353;-47
2022/03/19 14:26:45;;;;;;;0.40;0.40;;;;;;;;;;1787874;79;26360;-47
2022/03/19 14:29:13;;;;;;;0.40;0.40;;;;;;;;;;1776161;79;26258;-48
2022/03/19 14:31:41;;;;;;;0.37;0.23;;;;;;;;;;1777500;79;26270;-46
2022/03/19 14:34:08;;;;;;;0.30;0.30;;;;;;;;;;1776032;79;26718;-46
2022/03/19 14:36:35;;;;;;;0.60;0.60;;;;;;;;;;1789419;78;26279;-45
2022/03/19 14:39:05;;;;;;;0.50;0.50;;;;;;;;;;1779693;79;26325;-44
2022/03/19 14:41:34;;;;;;;0.30;0.30;;;;;;;;;;1782922;79;26346;-46
2022/03/19 14:44:01;;;;;;;0.60;0.60;;;;;;;;;;1785035;79;25660;-46
2022/03/19 14:46:29;;;;;;;0.40;0.40;;;;;;;;;;1796824;78;26223;-51
2022/03/19 14:48:56;;;;;;;0.50;0.50;;;;;;;;;;1792538;78;26294;-45
2022/03/19 14:51:24;;;;;;;1.05;0.40;;;;;;;;;;1777735;79;26349;-44
2022/03/19 14:53:52;;;;;;;0.30;0.30;;;;;;;;;;1779050;79;26424;-48
2022/03/19 14:56:20;;;;;;;0.30;0.30;;;;;;;;;;1779296;79;26321;-53
2022/03/19 14:58:49;;;;;;;0.30;0.30;;;;;;;;;;1794456;78;26703;-46
2022/03/19 15:01:17;;;;;;;0.30;0.30;;;;;;;;;;1783999;79;26911;-45
2022/03/19 15:03:45;;;;;;;0.47;0.40;;;;;;;;;;1794283;79;26356;-45
2022/03/19 15:06:13;;;;;;;0.70;0.30;;;;;;;;;;1779985;79;26282;-44